Strona główna
METAR-TAF:

METAR-TAF

Lotnisko :

Aurillac, Francja

Szerokość geograficzna: 44-53N, Długość geograficzna: 002-25E, wysokość: 639 m

Aktualna obserwacja pogody

Raport powstał 27 minut temu, godzina 12:30 UTC
Wiatr 6 kt od zachodnio-północny zachód, zmienny między południowy zachód i północno-północny wschód
Temperatura 27°C
Wilgotność 30%
Ciśnienie 1016 hPa
Widzialność 10 km lub więcej
Brak chmur poniżej 1500 m i brak chmur cumulonimbus

METAR: LFLW 171230Z AUTO 30006KT 230V020 CAVOK 27/08 Q1016 NOSIG

czas: 14:57 (12:57 UTC)

Prognoza

Raport powstał 1 godzina i 57 minut temu, godzina 11:00 UTC
Prognoza ważna od 17 godzina 12 UTC do 17 godzina 21 UTC
Wiatr 6 kt od zachodnio-północny zachód
Widzialność 10 km lub więcej
Brak chmur poniżej 1500 m i brak chmur cumulonimbus
Przejściowo
od 17 godzina 13 UTC do 17 godzina 19 UTC
Wiatr 8 kt od zachodnio-północny zachód w porywach dochodzący do 18 kt

TAF: LFLW 171100Z 1712/1721 30006KT CAVOK TEMPO 1713/1719 30008G18KT

Obserwacja i prognoza pogody dla ponad 4000 lotnisk (raport METAR i TAF).

Dostępne stacje oznaczono żółtymi i czerwonymi punktami na mapie.

Najedź kursorem aby zobaczyć nazwę stacji.

Kliknij aby zobaczyć obserwacje i prognozy pogody.

Aby zmienić mapę: kliknij na zielony przycisk z czarnym krzyżykiem, aby powiększyć; na zielony przycisk z myślnikiem, aby pomniejszyć; na zielone strzałki, aby przejść do map sąsiednich.


METAR-TAF: